createdAt,value
2018-12-09T00:00:02.530Z,6.53
2018-12-09T00:01:02.555Z,6.57
2018-12-09T00:02:02.568Z,6.57
2018-12-09T00:03:02.583Z,6.57
2018-12-09T00:04:02.595Z,6.62
2018-12-09T00:05:02.610Z,6.60
2018-12-09T00:06:02.623Z,6.60
2018-12-09T00:07:02.636Z,6.52
2018-12-09T00:08:02.648Z,6.54
2018-12-09T00:09:02.663Z,6.52
2018-12-09T00:10:02.676Z,6.56
2018-12-09T00:11:02.689Z,6.47
2018-12-09T00:12:02.703Z,6.56
2018-12-09T00:13:02.718Z,6.53
2018-12-09T00:14:02.730Z,6.53
2018-12-09T00:15:02.745Z,6.49
2018-12-09T00:16:02.769Z,6.50
2018-12-09T00:17:02.772Z,6.47
2018-12-09T00:18:02.783Z,6.46
2018-12-09T00:19:02.798Z,6.46
2018-12-09T00:20:02.810Z,6.44
2018-12-09T00:21:02.824Z,6.44
2018-12-09T00:22:02.836Z,6.50
2018-12-09T00:23:02.863Z,6.49
2018-12-09T00:24:02.863Z,6.47
2018-12-09T00:25:02.890Z,6.50
2018-12-09T00:26:02.894Z,6.50
2018-12-09T00:27:02.916Z,6.47
2018-12-09T00:28:02.929Z,6.46
2018-12-09T00:29:02.943Z,6.43
2018-12-09T00:30:02.958Z,6.43
2018-12-09T00:31:02.969Z,6.43
2018-12-09T00:32:02.985Z,6.50
2018-12-09T00:33:02.996Z,6.41
2018-12-09T00:34:03.010Z,6.46
2018-12-09T00:35:03.023Z,6.47
2018-12-09T00:36:03.037Z,6.50
2018-12-09T00:37:03.050Z,6.46
2018-12-09T00:38:03.064Z,6.47
2018-12-09T00:39:03.089Z,6.44
2018-12-09T00:40:03.090Z,6.47
2018-12-09T00:41:03.104Z,6.46
2018-12-09T00:42:03.117Z,6.46
2018-12-09T00:43:03.129Z,6.46
2018-12-09T00:44:03.144Z,6.44
2018-12-09T00:45:03.157Z,6.47
2018-12-09T00:46:03.174Z,6.43
2018-12-09T00:47:03.183Z,6.50
2018-12-09T00:48:03.198Z,6.52
2018-12-09T00:49:03.211Z,6.47
2018-12-09T00:50:03.224Z,6.47
2018-12-09T00:51:03.237Z,6.47
2018-12-09T00:52:03.251Z,6.43
2018-12-09T00:53:03.277Z,6.50
2018-12-09T00:54:03.279Z,6.52
2018-12-09T00:55:03.292Z,6.53
2018-12-09T00:56:03.319Z,6.50
2018-12-09T00:57:03.358Z,6.46
2018-12-09T00:58:03.347Z,6.50
2018-12-09T00:59:03.357Z,6.49
2018-12-09T01:00:03.370Z,6.52
2018-12-09T01:01:03.387Z,6.49
2018-12-09T01:02:03.397Z,6.50
2018-12-09T01:03:03.413Z,6.49
2018-12-09T01:04:03.424Z,6.49
2018-12-09T01:05:03.442Z,6.49
2018-12-09T01:06:03.453Z,6.47
2018-12-09T01:07:03.465Z,6.56
2018-12-09T01:08:03.478Z,6.49
2018-12-09T01:09:03.491Z,6.54
2018-12-09T01:10:03.504Z,6.50
2018-12-09T01:11:03.518Z,6.49
2018-12-09T01:12:03.532Z,6.50
2018-12-09T01:13:03.545Z,6.54
2018-12-09T01:14:03.559Z,6.49
2018-12-09T01:15:03.572Z,6.49
2018-12-09T01:16:03.584Z,6.53
2018-12-09T01:17:03.599Z,6.56
2018-12-09T01:18:03.624Z,6.52
2018-12-09T01:19:03.626Z,6.62
2018-12-09T01:20:03.637Z,6.64
2018-12-09T01:21:03.652Z,6.60
2018-12-09T01:22:03.665Z,6.62
2018-12-09T01:23:03.678Z,6.59
2018-12-09T01:24:03.694Z,6.59
2018-12-09T01:25:03.717Z,6.60
2018-12-09T01:26:03.720Z,6.60
2018-12-09T01:27:03.744Z,6.56
2018-12-09T01:28:03.758Z,6.54
2018-12-09T01:29:03.770Z,6.65
2018-12-09T01:30:03.784Z,6.74
2018-12-09T01:31:03.798Z,6.65
2018-12-09T01:32:03.812Z,6.71
2018-12-09T01:33:03.824Z,6.71
2018-12-09T01:34:03.843Z,6.68
2018-12-09T01:35:03.851Z,6.67
2018-12-09T01:36:03.865Z,6.71
2018-12-09T01:37:03.877Z,6.67
2018-12-09T01:38:03.893Z,6.72
2018-12-09T01:39:03.906Z,6.78
2018-12-09T01:40:03.920Z,6.70
2018-12-09T01:41:03.932Z,6.71
2018-12-09T01:42:03.953Z,6.74
2018-12-09T01:43:03.958Z,6.75
2018-12-09T01:44:03.972Z,6.77
2018-12-09T01:45:03.985Z,6.68
2018-12-09T01:46:04.000Z,6.77
2018-12-09T01:47:04.012Z,6.80
2018-12-09T01:48:04.038Z,6.78
2018-12-09T01:49:04.051Z,6.75
2018-12-09T01:50:04.065Z,6.80
2018-12-09T01:51:04.079Z,6.80
2018-12-09T01:52:04.096Z,6.78
2018-12-09T01:53:04.105Z,6.77
2018-12-09T01:54:04.131Z,6.77
2018-12-09T01:55:04.132Z,6.75
2018-12-09T01:56:04.145Z,6.80
2018-12-09T01:57:04.165Z,6.82
2018-12-09T01:58:04.172Z,6.72
2018-12-09T01:59:04.185Z,6.75
2018-12-09T02:00:04.198Z,6.80
2018-12-09T02:01:04.221Z,6.72
2018-12-09T02:02:04.226Z,6.77
2018-12-09T02:03:04.239Z,6.83
2018-12-09T02:04:04.252Z,6.72
2018-12-09T02:05:04.267Z,6.77
2018-12-09T02:06:04.279Z,6.83
2018-12-09T02:07:04.304Z,6.77
2018-12-09T02:08:04.318Z,6.75
2018-12-09T02:09:04.331Z,6.72
2018-12-09T02:10:04.346Z,6.74
2018-12-09T02:11:04.359Z,6.75
2018-12-09T02:12:04.373Z,6.77
2018-12-09T02:13:04.386Z,6.87
2018-12-09T02:14:04.399Z,6.82
2018-12-09T02:15:04.411Z,6.82
2018-12-09T02:16:04.425Z,6.80
2018-12-09T02:17:04.438Z,6.82
2018-12-09T02:18:04.453Z,6.87
2018-12-09T02:19:04.466Z,6.87
2018-12-09T02:20:04.480Z,6.86
2018-12-09T02:21:04.492Z,6.87
2018-12-09T02:22:04.505Z,6.89
2018-12-09T02:23:04.519Z,6.83
2018-12-09T02:24:04.547Z,6.87
2018-12-09T02:25:04.558Z,6.93
2018-12-09T02:26:04.571Z,6.95
2018-12-09T02:27:04.592Z,6.95
2018-12-09T02:28:04.598Z,6.92
2018-12-09T02:29:04.612Z,7.01
2018-12-09T02:30:04.626Z,6.90
2018-12-09T02:31:04.641Z,6.96
2018-12-09T02:32:04.665Z,6.97
2018-12-09T02:33:04.665Z,6.93
2018-12-09T02:34:04.685Z,6.87
2018-12-09T02:35:04.692Z,6.93
2018-12-09T02:36:04.705Z,6.90
2018-12-09T02:37:04.720Z,7.00
2018-12-09T02:38:04.736Z,7.00
2018-12-09T02:39:04.769Z,6.96
2018-12-09T02:40:04.771Z,7.05
2018-12-09T02:41:04.785Z,7.07
2018-12-09T02:42:04.798Z,7.10
2018-12-09T02:43:04.812Z,7.08
2018-12-09T02:44:04.826Z,7.10
2018-12-09T02:45:04.846Z,7.04
2018-12-09T02:46:04.851Z,7.10
2018-12-09T02:47:04.866Z,7.07
2018-12-09T02:48:04.882Z,7.08
2018-12-09T02:49:04.892Z,7.13
2018-12-09T02:50:04.906Z,7.10
2018-12-09T02:51:04.926Z,7.05
2018-12-09T02:52:04.943Z,7.07
2018-12-09T02:53:05.061Z,7.07
2018-12-09T02:54:04.970Z,7.07
2018-12-09T02:55:04.987Z,7.10
2018-12-09T02:56:04.997Z,7.13
2018-12-09T02:57:05.014Z,7.10
2018-12-09T02:58:05.025Z,7.10
2018-12-09T02:59:05.038Z,7.13
2018-12-09T03:00:05.053Z,7.13
2018-12-09T03:01:05.069Z,7.11
2018-12-09T03:02:05.078Z,7.15
2018-12-09T03:03:05.103Z,7.10
2018-12-09T03:04:05.118Z,7.25
2018-12-09T03:05:05.130Z,7.07
2018-12-09T03:06:05.144Z,7.04
2018-12-09T03:07:05.159Z,7.11
2018-12-09T03:08:05.172Z,7.11
2018-12-09T03:09:05.185Z,7.10
2018-12-09T03:10:05.203Z,7.10
2018-12-09T03:11:05.211Z,7.26
2018-12-09T03:12:05.226Z,7.22
2018-12-09T03:13:05.238Z,7.22
2018-12-09T03:14:05.252Z,7.07
2018-12-09T03:15:05.280Z,7.19
2018-12-09T03:16:05.290Z,7.13
2018-12-09T03:17:05.304Z,7.15
2018-12-09T03:18:05.331Z,7.10
2018-12-09T03:19:05.333Z,7.15
2018-12-09T03:20:05.351Z,7.29
2018-12-09T03:21:05.358Z,7.19
2018-12-09T03:22:05.372Z,7.25
2018-12-09T03:23:05.385Z,7.26
2018-12-09T03:24:05.397Z,7.26
2018-12-09T03:25:05.423Z,7.28
2018-12-09T03:26:05.437Z,7.29
2018-12-09T03:27:05.468Z,7.26
2018-12-09T03:28:05.465Z,7.28
2018-12-09T03:29:05.477Z,7.25
2018-12-09T03:30:05.492Z,7.26
2018-12-09T03:31:05.505Z,7.29
2018-12-09T03:32:05.520Z,7.29
2018-12-09T03:33:05.532Z,7.26
2018-12-09T03:34:05.558Z,7.39
2018-12-09T03:35:05.558Z,7.33
2018-12-09T03:36:05.584Z,7.33
2018-12-09T03:37:05.597Z,7.40
2018-12-09T03:38:05.621Z,7.43
2018-12-09T03:39:05.625Z,7.33
2018-12-09T03:40:05.640Z,7.32
2018-12-09T03:41:05.652Z,7.33
2018-12-09T03:42:05.664Z,7.44
2018-12-09T03:43:05.679Z,7.33
2018-12-09T03:44:05.692Z,7.32
2018-12-09T03:45:05.718Z,7.36
2018-12-09T03:46:05.722Z,7.43
2018-12-09T03:47:05.743Z,7.37
2018-12-09T03:48:05.757Z,7.37
2018-12-09T03:49:05.770Z,7.43
2018-12-09T03:50:05.787Z,7.36
2018-12-09T03:51:05.796Z,7.36
2018-12-09T03:52:05.812Z,7.41
2018-12-09T03:53:05.824Z,7.36
2018-12-09T03:54:05.838Z,7.48
2018-12-09T03:55:05.853Z,7.37
2018-12-09T03:56:05.879Z,7.32
2018-12-09T03:57:05.892Z,7.39
2018-12-09T03:58:05.903Z,7.41
2018-12-09T03:59:05.918Z,7.46
2018-12-09T04:00:05.930Z,7.43
2018-12-09T04:01:05.945Z,7.44
2018-12-09T04:02:05.960Z,7.41
2018-12-09T04:03:05.972Z,7.43
2018-12-09T04:04:05.985Z,7.40
2018-12-09T04:05:05.998Z,7.44
2018-12-09T04:06:06.012Z,7.39
2018-12-09T04:07:06.037Z,7.43
2018-12-09T04:08:06.052Z,7.43
2018-12-09T04:09:06.063Z,7.43
2018-12-09T04:10:06.078Z,7.48
2018-12-09T04:11:06.091Z,7.44
2018-12-09T04:12:06.104Z,7.40
2018-12-09T04:13:06.130Z,7.33
2018-12-09T04:14:06.131Z,7.40
2018-12-09T04:15:06.144Z,7.48
2018-12-09T04:16:06.160Z,7.46
2018-12-09T04:17:06.172Z,7.44
2018-12-09T04:18:06.199Z,7.41
2018-12-09T04:19:06.211Z,7.43
2018-12-09T04:20:06.225Z,7.40
2018-12-09T04:21:06.237Z,7.39
2018-12-09T04:22:06.252Z,7.37
2018-12-09T04:23:06.265Z,7.46
2018-12-09T04:24:06.278Z,7.40
2018-12-09T04:25:06.292Z,7.43
2018-12-09T04:26:06.304Z,7.47
2018-12-09T04:27:06.318Z,7.48
2018-12-09T04:28:06.333Z,7.51
2018-12-09T04:29:06.357Z,7.48
2018-12-09T04:30:06.371Z,7.48
2018-12-09T04:31:06.385Z,7.47
2018-12-09T04:32:06.399Z,7.51
2018-12-09T04:33:06.411Z,7.55
2018-12-09T04:34:06.426Z,7.51
2018-12-09T04:35:06.438Z,7.50
2018-12-09T04:36:06.452Z,7.56
2018-12-09T04:37:06.466Z,7.51
2018-12-09T04:38:06.486Z,7.50
2018-12-09T04:39:06.492Z,7.51
2018-12-09T04:40:08.681Z,7.50
2018-12-09T04:41:06.533Z,7.53
2018-12-09T04:42:06.544Z,7.55
2018-12-09T04:43:06.566Z,7.55
2018-12-09T04:44:06.575Z,7.50
2018-12-09T04:45:06.886Z,7.51
2018-12-09T04:46:06.649Z,7.50
2018-12-09T04:47:06.612Z,7.47
2018-12-09T04:48:06.626Z,7.53
2018-12-09T04:49:06.651Z,7.51
2018-12-09T04:50:06.674Z,7.56
2018-12-09T04:51:06.679Z,7.51
2018-12-09T04:52:06.696Z,7.56
2018-12-09T04:53:06.705Z,7.51
2018-12-09T04:54:06.718Z,7.56
2018-12-09T04:55:06.731Z,7.48
2018-12-09T04:56:06.747Z,7.56
2018-12-09T04:57:06.759Z,7.55
2018-12-09T04:58:06.772Z,7.51
2018-12-09T04:59:06.799Z,7.55
2018-12-09T05:00:06.810Z,7.56
2018-12-09T05:01:06.825Z,7.51
2018-12-09T05:02:06.839Z,7.47
2018-12-09T05:03:06.851Z,7.56
2018-12-09T05:04:06.864Z,7.51
2018-12-09T05:05:06.883Z,7.61
2018-12-09T05:06:06.892Z,7.50
2018-12-09T05:07:06.905Z,7.51
2018-12-09T05:08:06.931Z,7.58
2018-12-09T05:09:06.944Z,7.59
2018-12-09T05:10:06.958Z,7.56
2018-12-09T05:11:06.971Z,7.53
2018-12-09T05:12:06.985Z,7.51
2018-12-09T05:13:06.998Z,7.46
2018-12-09T05:14:07.019Z,7.53
2018-12-09T05:15:07.025Z,7.53
2018-12-09T05:16:07.039Z,7.53
2018-12-09T05:17:07.054Z,7.46
2018-12-09T05:18:07.077Z,7.58
2018-12-09T05:19:07.091Z,7.50
2018-12-09T05:20:07.104Z,7.50
2018-12-09T05:21:07.119Z,7.53
2018-12-09T05:22:07.131Z,7.64
2018-12-09T05:23:07.146Z,7.61
2018-12-09T05:24:07.159Z,7.67
2018-12-09T05:25:07.172Z,7.50
2018-12-09T05:26:07.186Z,7.61
2018-12-09T05:27:07.212Z,7.53
2018-12-09T05:28:07.225Z,7.53
2018-12-09T05:29:07.238Z,7.58
2018-12-09T05:30:07.254Z,7.47
2018-12-09T05:31:07.265Z,7.64
2018-12-09T05:32:07.280Z,7.62
2018-12-09T05:33:07.292Z,7.64
2018-12-09T05:34:07.310Z,7.55
2018-12-09T05:35:07.398Z,7.48
2018-12-09T05:36:07.345Z,7.59
2018-12-09T05:37:07.359Z,7.59
2018-12-09T05:38:07.373Z,7.66
2018-12-09T05:39:07.385Z,7.59
2018-12-09T05:40:07.398Z,7.67
2018-12-09T05:41:07.414Z,7.55
2018-12-09T05:42:07.426Z,7.58
2018-12-09T05:43:07.441Z,7.59
2018-12-09T05:44:07.455Z,7.56
2018-12-09T05:45:07.479Z,7.56
2018-12-09T05:46:08.497Z,7.66
2018-12-09T05:47:07.505Z,7.59
2018-12-09T05:48:07.519Z,7.64
2018-12-09T05:49:07.532Z,7.44
2018-12-09T05:50:07.546Z,7.46
2018-12-09T05:51:07.561Z,7.55
2018-12-09T05:52:07.574Z,7.51
2018-12-09T05:53:07.587Z,7.53
2018-12-09T05:54:07.612Z,7.56
2018-12-09T05:55:07.629Z,7.53
2018-12-09T05:56:07.652Z,7.55
2018-12-09T05:57:07.653Z,7.56
2018-12-09T05:58:07.665Z,7.50
2018-12-09T05:59:07.680Z,7.50
2018-12-09T06:00:07.693Z,7.55
2018-12-09T06:01:07.707Z,7.53
2018-12-09T06:02:07.719Z,7.53
2018-12-09T06:03:07.735Z,7.48
2018-12-09T06:04:07.748Z,7.48
2018-12-09T06:05:07.772Z,7.51
2018-12-09T06:06:07.786Z,7.51
2018-12-09T06:07:07.803Z,7.50
2018-12-09T06:08:07.814Z,7.56
2018-12-09T06:09:07.841Z,7.53
2018-12-09T06:10:07.841Z,7.51
2018-12-09T06:11:07.858Z,7.51
2018-12-09T06:12:07.867Z,7.53
2018-12-09T06:13:07.881Z,7.53
2018-12-09T06:14:07.895Z,7.51
2018-12-09T06:15:07.910Z,7.51
2018-12-09T06:16:07.936Z,7.53
2018-12-09T06:17:07.947Z,7.50
2018-12-09T06:18:07.961Z,7.55
2018-12-09T06:19:07.974Z,7.59
2018-12-09T06:20:08.003Z,7.56
2018-12-09T06:21:08.001Z,7.56
2018-12-09T06:22:08.014Z,7.56
2018-12-09T06:23:08.029Z,7.50
2018-12-09T06:24:08.041Z,7.51
2018-12-09T06:25:08.060Z,7.53
2018-12-09T06:26:08.103Z,7.46
2018-12-09T06:27:08.094Z,7.55
2018-12-09T06:28:08.108Z,7.53
2018-12-09T06:29:08.121Z,7.53
2018-12-09T06:30:08.136Z,7.56
2018-12-09T06:31:08.161Z,7.53
2018-12-09T06:32:08.163Z,7.50
2018-12-09T06:33:08.178Z,7.50
2018-12-09T06:34:08.192Z,7.48
2018-12-09T06:35:08.202Z,7.53
2018-12-09T06:36:08.221Z,7.53
2018-12-09T06:37:08.243Z,7.53
2018-12-09T06:38:08.256Z,7.50
2018-12-09T06:39:08.394Z,7.50
2018-12-09T06:40:08.282Z,7.50
2018-12-09T06:41:08.296Z,7.51
2018-12-09T06:42:08.311Z,7.53
2018-12-09T06:43:08.323Z,7.44
2018-12-09T06:44:08.336Z,7.55
2018-12-09T06:45:08.350Z,7.48
2018-12-09T06:46:08.377Z,7.51
2018-12-09T06:47:08.378Z,7.48
2018-12-09T06:48:08.395Z,7.40
2018-12-09T06:49:08.416Z,7.47
2018-12-09T06:50:08.430Z,7.48
2018-12-09T06:51:08.443Z,7.39
2018-12-09T06:52:08.457Z,7.47
2018-12-09T06:53:08.470Z,7.47
2018-12-09T06:54:08.484Z,7.47
2018-12-09T06:55:08.497Z,7.44
2018-12-09T06:56:08.511Z,7.43
2018-12-09T06:57:08.524Z,7.41
2018-12-09T06:58:08.539Z,7.51
2018-12-09T06:59:08.644Z,7.46
2018-12-09T07:00:08.577Z,7.44
2018-12-09T07:01:08.592Z,7.39
2018-12-09T07:02:08.605Z,7.43
2018-12-09T07:03:08.619Z,7.48
2018-12-09T07:04:08.632Z,7.47
2018-12-09T07:05:08.645Z,7.44
2018-12-09T07:06:08.658Z,7.41
2018-12-09T07:07:08.672Z,7.41
2018-12-09T07:08:08.686Z,7.46
2018-12-09T07:09:08.700Z,7.44
2018-12-09T07:10:08.712Z,7.44
2018-12-09T07:11:08.727Z,7.40
2018-12-09T07:12:08.740Z,7.43
2018-12-09T07:13:08.765Z,7.46
2018-12-09T07:14:08.782Z,7.46
2018-12-09T07:15:08.792Z,7.46
2018-12-09T07:16:08.809Z,7.43
2018-12-09T07:17:08.819Z,7.41
2018-12-09T07:18:08.835Z,7.43
2018-12-09T07:19:08.847Z,7.46
2018-12-09T07:20:08.861Z,7.48
2018-12-09T07:21:08.886Z,7.44
2018-12-09T07:22:08.888Z,7.36
2018-12-09T07:23:08.901Z,7.33
2018-12-09T07:24:08.926Z,7.32
2018-12-09T07:25:08.941Z,7.40
2018-12-09T07:26:08.954Z,7.36
2018-12-09T07:27:08.971Z,7.37
2018-12-09T07:28:08.981Z,7.41
2018-12-09T07:29:08.994Z,7.32
2018-12-09T07:30:09.010Z,7.33
2018-12-09T07:31:09.023Z,7.37
2018-12-09T07:32:09.037Z,7.36
2018-12-09T07:33:09.049Z,7.33
2018-12-09T07:34:09.066Z,7.33
2018-12-09T07:35:09.076Z,7.40
2018-12-09T07:36:09.090Z,7.29
2018-12-09T07:37:09.115Z,7.37
2018-12-09T07:38:09.129Z,7.43
2018-12-09T07:39:09.142Z,7.31
2018-12-09T07:40:09.155Z,7.40
2018-12-09T07:41:09.184Z,7.39
2018-12-09T07:42:09.206Z,7.44
2018-12-09T07:43:09.196Z,7.36
2018-12-09T07:44:09.210Z,7.40
2018-12-09T07:45:09.223Z,7.36
2018-12-09T07:46:09.237Z,7.32
2018-12-09T07:47:09.250Z,7.33
2018-12-09T07:48:09.277Z,7.33
2018-12-09T07:49:09.290Z,7.40
2018-12-09T07:50:09.303Z,7.33
2018-12-09T07:51:09.317Z,7.32
2018-12-09T07:52:09.330Z,7.32
2018-12-09T07:53:09.346Z,7.43
2018-12-09T07:54:09.357Z,7.40
2018-12-09T07:55:09.371Z,7.39
2018-12-09T07:56:09.384Z,7.37
2018-12-09T07:57:09.398Z,7.41
2018-12-09T07:58:09.412Z,7.44
2018-12-09T07:59:09.437Z,7.41
2018-12-09T08:00:09.452Z,7.43
2018-12-09T08:01:09.465Z,7.41
2018-12-09T08:02:09.478Z,7.43
2018-12-09T08:03:09.493Z,7.46
2018-12-09T08:04:09.506Z,7.39
2018-12-09T08:05:09.533Z,7.39
2018-12-09T08:06:09.532Z,7.39
2018-12-09T08:07:09.545Z,7.46
2018-12-09T08:08:09.560Z,7.39
2018-12-09T08:09:09.586Z,7.46
2018-12-09T08:10:09.611Z,7.44
2018-12-09T08:11:09.613Z,7.40
2018-12-09T08:12:09.626Z,7.50
2018-12-09T08:13:09.640Z,7.51
2018-12-09T08:14:09.655Z,7.51
2018-12-09T08:15:09.670Z,7.40
2018-12-09T08:16:09.680Z,7.48
2018-12-09T08:17:09.707Z,7.48
2018-12-09T08:18:09.708Z,7.50
2018-12-09T08:19:09.732Z,7.47
2018-12-09T08:20:09.748Z,7.50
2018-12-09T08:21:09.760Z,7.46
2018-12-09T08:22:09.773Z,7.47
2018-12-09T08:23:09.799Z,7.47
2018-12-09T08:24:09.801Z,7.41
2018-12-09T08:25:09.813Z,7.43
2018-12-09T08:26:09.828Z,7.37
2018-12-09T08:27:09.841Z,7.43
2018-12-09T08:28:09.855Z,7.43
2018-12-09T08:29:09.881Z,7.39
2018-12-09T08:30:09.893Z,7.39
2018-12-09T08:31:09.907Z,7.39
2018-12-09T08:32:09.925Z,7.39
2018-12-09T08:33:09.938Z,7.40
2018-12-09T08:34:09.947Z,7.36
2018-12-09T08:35:09.963Z,7.44
2018-12-09T08:36:09.974Z,7.40
2018-12-09T08:37:09.988Z,7.36
2018-12-09T08:38:10.001Z,7.32
2018-12-09T08:39:10.020Z,7.46
2018-12-09T08:40:10.042Z,7.37
2018-12-09T08:41:10.054Z,7.46
2018-12-09T08:42:10.072Z,7.43
2018-12-09T08:43:10.082Z,7.43
2018-12-09T08:44:10.095Z,7.40
2018-12-09T08:45:10.123Z,7.40
2018-12-09T08:46:10.122Z,7.43
2018-12-09T08:47:10.135Z,7.47
2018-12-09T08:48:10.149Z,7.41
2018-12-09T08:49:10.163Z,7.41
2018-12-09T08:50:10.188Z,7.44
2018-12-09T08:51:10.207Z,7.47
2018-12-09T08:52:10.216Z,7.41
2018-12-09T08:53:10.230Z,7.41
2018-12-09T08:54:10.242Z,7.39
2018-12-09T08:55:10.257Z,7.41
2018-12-09T08:56:10.270Z,7.40
2018-12-09T08:57:10.284Z,7.41
2018-12-09T08:58:10.309Z,7.40
2018-12-09T08:59:10.311Z,7.41
2018-12-09T09:00:10.336Z,7.31
2018-12-09T09:01:10.349Z,7.43
2018-12-09T09:02:10.364Z,7.33
2018-12-09T09:03:10.377Z,7.33
2018-12-09T09:04:10.390Z,7.37
2018-12-09T09:05:10.403Z,7.32
2018-12-09T09:06:10.419Z,7.40
2018-12-09T09:07:10.431Z,7.37
2018-12-09T09:08:10.446Z,7.40
2018-12-09T09:09:10.472Z,7.33
2018-12-09T09:10:10.484Z,7.44
2018-12-09T09:11:10.499Z,7.36
2018-12-09T09:12:10.511Z,7.41
2018-12-09T09:13:10.525Z,7.41
2018-12-09T09:14:10.538Z,7.43
2018-12-09T09:15:10.551Z,7.48
2018-12-09T09:16:10.566Z,7.53
2018-12-09T09:17:10.675Z,7.50
2018-12-09T09:18:10.606Z,7.59
2018-12-09T09:19:10.617Z,7.51
2018-12-09T09:20:10.633Z,7.48
2018-12-09T09:21:10.645Z,7.59
2018-12-09T09:22:10.659Z,7.55
2018-12-09T09:23:10.672Z,7.66
2018-12-09T09:24:10.698Z,7.66
2018-12-09T09:25:10.712Z,7.62
2018-12-09T09:26:10.727Z,7.59
2018-12-09T09:27:10.739Z,7.59
2018-12-09T09:28:10.752Z,7.59
2018-12-09T09:29:10.766Z,7.62
2018-12-09T09:30:10.779Z,7.62
2018-12-09T09:31:10.805Z,7.62
2018-12-09T09:32:10.822Z,7.67
2018-12-09T09:33:10.845Z,7.64
2018-12-09T09:34:10.846Z,7.67
2018-12-09T09:35:10.859Z,7.64
2018-12-09T09:36:10.873Z,7.62
2018-12-09T09:37:11.003Z,7.61
2018-12-09T09:38:10.912Z,7.62
2018-12-09T09:39:10.926Z,7.66
2018-12-09T09:40:10.938Z,7.59
2018-12-09T09:41:10.953Z,7.59
2018-12-09T09:42:11.066Z,7.62
2018-12-09T09:43:10.991Z,7.62
2018-12-09T09:44:11.006Z,7.62
2018-12-09T09:45:11.019Z,7.62
2018-12-09T09:46:11.033Z,7.58
2018-12-09T09:47:11.045Z,7.67
2018-12-09T09:48:11.061Z,7.66
2018-12-09T09:49:11.074Z,7.62
2018-12-09T09:50:12.087Z,7.77
2018-12-09T09:51:11.113Z,7.74
2018-12-09T09:52:11.127Z,7.67
2018-12-09T09:53:11.140Z,7.72
2018-12-09T09:54:11.165Z,7.81
2018-12-09T09:55:11.171Z,7.67
2018-12-09T09:56:11.193Z,7.77
2018-12-09T09:57:11.206Z,7.80
2018-12-09T09:58:11.219Z,7.87
2018-12-09T09:59:11.232Z,7.85
2018-12-09T10:00:11.253Z,7.88
2018-12-09T10:01:11.261Z,7.75
2018-12-09T10:02:11.286Z,7.84
2018-12-09T10:03:11.300Z,7.88
2018-12-09T10:04:11.314Z,7.85
2018-12-09T10:05:11.327Z,7.88
2018-12-09T10:06:11.340Z,7.83
2018-12-09T10:07:11.365Z,7.84
2018-12-09T10:08:11.381Z,7.91
2018-12-09T10:09:11.393Z,7.95
2018-12-09T10:10:11.406Z,7.93
2018-12-09T10:11:11.419Z,7.96
2018-12-09T10:12:11.434Z,7.95
2018-12-09T10:13:11.460Z,7.93
2018-12-09T10:14:11.476Z,7.95
2018-12-09T10:15:11.488Z,7.90
2018-12-09T10:16:11.500Z,7.90
2018-12-09T10:17:11.514Z,7.90
2018-12-09T10:18:11.542Z,7.95
2018-12-09T10:19:11.553Z,7.93
2018-12-09T10:20:11.567Z,7.93
2018-12-09T10:21:11.581Z,7.98
2018-12-09T10:22:11.634Z,8.01
2018-12-09T10:23:11.608Z,8.02
2018-12-09T10:24:11.637Z,8.02
2018-12-09T10:25:11.648Z,7.99
2018-12-09T10:26:11.660Z,8.02
2018-12-09T10:27:11.676Z,8.01
2018-12-09T10:28:11.703Z,8.06
2018-12-09T10:29:11.713Z,8.06
2018-12-09T10:30:11.728Z,8.14
2018-12-09T10:31:11.741Z,8.08
2018-12-09T10:32:11.755Z,8.09
2018-12-09T10:33:11.768Z,8.08
2018-12-09T10:34:11.793Z,8.09
2018-12-09T10:35:11.811Z,8.16
2018-12-09T10:36:11.926Z,8.21
2018-12-09T10:37:11.835Z,8.16
2018-12-09T10:38:11.848Z,8.18
2018-12-09T10:39:11.874Z,8.24
2018-12-09T10:40:11.888Z,8.18
2018-12-09T10:41:11.902Z,8.20
2018-12-09T10:42:11.918Z,8.23
2018-12-09T10:43:11.928Z,8.06
2018-12-09T10:44:11.954Z,8.24
2018-12-09T10:45:11.968Z,8.18
2018-12-09T10:46:11.981Z,8.16
2018-12-09T10:47:11.995Z,8.18
2018-12-09T10:48:12.020Z,8.17
2018-12-09T10:49:12.033Z,8.18
2018-12-09T10:50:12.048Z,8.21
2018-12-09T10:51:12.061Z,8.21
2018-12-09T10:52:12.075Z,8.23
2018-12-09T10:53:12.101Z,8.21
2018-12-09T10:54:12.113Z,8.23
2018-12-09T10:55:12.127Z,8.23
2018-12-09T10:56:12.142Z,8.27
2018-12-09T10:57:12.154Z,8.24
2018-12-09T10:58:12.180Z,8.26
2018-12-09T10:59:12.193Z,8.28
2018-12-09T11:00:12.219Z,8.39
2018-12-09T11:01:12.221Z,8.27
2018-12-09T11:02:12.235Z,8.32
2018-12-09T11:03:12.265Z,8.28
2018-12-09T11:04:12.276Z,8.31
2018-12-09T11:05:12.288Z,8.28
2018-12-09T11:06:12.301Z,8.24
2018-12-09T11:07:12.326Z,8.24
2018-12-09T11:08:12.341Z,8.26
2018-12-09T11:09:12.355Z,8.28
2018-12-09T11:10:12.368Z,8.28
2018-12-09T11:11:12.381Z,8.31
2018-12-09T11:12:12.407Z,8.32
2018-12-09T11:13:12.422Z,8.26
2018-12-09T11:14:12.435Z,8.31
2018-12-09T11:15:12.450Z,8.31
2018-12-09T11:16:12.462Z,8.24
2018-12-09T11:17:12.489Z,8.26
2018-12-09T11:18:12.502Z,8.21
2018-12-09T11:19:12.516Z,8.23
2018-12-09T11:20:12.529Z,8.21
2018-12-09T11:21:12.555Z,8.11
2018-12-09T11:22:12.569Z,8.08
2018-12-09T11:23:12.583Z,8.06
2018-12-09T11:24:12.595Z,8.05
2018-12-09T11:25:12.609Z,8.05
2018-12-09T11:26:12.625Z,8.08
2018-12-09T11:27:12.649Z,8.03
2018-12-09T11:28:12.662Z,8.02
2018-12-09T11:29:12.678Z,8.02
2018-12-09T11:30:12.690Z,7.99
2018-12-09T11:31:12.703Z,8.01
2018-12-09T11:32:12.729Z,8.02
2018-12-09T11:33:12.742Z,8.01
2018-12-09T11:34:12.755Z,8.01
2018-12-09T11:35:12.770Z,8.06
2018-12-09T11:36:12.782Z,8.06
2018-12-09T11:37:12.796Z,8.06
2018-12-09T11:38:12.847Z,8.09
2018-12-09T11:39:12.849Z,8.11
2018-12-09T11:40:12.852Z,8.09
2018-12-09T11:41:12.862Z,8.06
2018-12-09T11:42:12.877Z,8.18
2018-12-09T11:43:12.892Z,8.24
2018-12-09T11:44:12.916Z,8.21
2018-12-09T11:45:12.930Z,8.27
2018-12-09T11:46:12.943Z,8.31
2018-12-09T11:47:12.957Z,8.27
2018-12-09T11:48:12.987Z,8.24
2018-12-09T11:49:12.996Z,8.26
2018-12-09T11:50:13.013Z,8.42
2018-12-09T11:51:13.023Z,8.38
2018-12-09T11:52:13.041Z,8.36
2018-12-09T11:53:13.070Z,8.52
2018-12-09T11:54:13.076Z,8.50
2018-12-09T11:55:13.090Z,8.53
2018-12-09T11:56:13.103Z,8.41
2018-12-09T11:57:13.129Z,8.44
2018-12-09T11:58:13.144Z,8.44
2018-12-09T11:59:13.157Z,8.59
2018-12-09T12:00:13.172Z,8.44
2018-12-09T12:01:13.183Z,8.59
2018-12-09T12:02:19.949Z,8.52
2018-12-09T12:03:13.223Z,8.49
2018-12-09T12:04:13.337Z,8.59
2018-12-09T12:05:13.251Z,8.54
2018-12-09T12:06:13.277Z,8.50
2018-12-09T12:07:13.290Z,8.44
2018-12-09T12:08:13.305Z,8.52
2018-12-09T12:09:13.319Z,8.42
2018-12-09T12:10:13.333Z,8.45
2018-12-09T12:11:13.356Z,8.50
2018-12-09T12:12:13.370Z,8.49
2018-12-09T12:13:13.385Z,8.41
2018-12-09T12:14:13.399Z,8.49
2018-12-09T12:15:13.423Z,8.52
2018-12-09T12:16:13.438Z,8.49
2018-12-09T12:17:13.450Z,8.42
2018-12-09T12:18:13.464Z,8.46
2018-12-09T12:19:13.478Z,8.52
2018-12-09T12:20:13.506Z,8.41
2018-12-09T12:21:13.520Z,8.38
2018-12-09T12:22:13.530Z,8.36
2018-12-09T12:23:13.552Z,8.39
2018-12-09T12:24:13.558Z,8.39
2018-12-09T12:25:13.583Z,8.39
2018-12-09T12:26:13.599Z,8.42
2018-12-09T12:27:13.611Z,8.41
2018-12-09T12:28:13.626Z,8.35
2018-12-09T12:29:13.652Z,8.46
2018-12-09T12:30:13.663Z,8.35
2018-12-09T12:31:13.680Z,8.41
2018-12-09T12:32:13.692Z,8.36
2018-12-09T12:33:13.705Z,8.39
2018-12-09T12:34:13.735Z,8.41
2018-12-09T12:35:13.743Z,8.36
2018-12-09T12:36:13.758Z,8.41
2018-12-09T12:37:13.786Z,8.41
2018-12-09T12:38:13.785Z,8.42
2018-12-09T12:39:13.811Z,8.42
2018-12-09T12:40:13.823Z,8.34
2018-12-09T12:41:13.838Z,8.46
2018-12-09T12:42:13.851Z,8.44
2018-12-09T12:43:13.876Z,8.41
2018-12-09T12:44:13.891Z,8.41
2018-12-09T12:45:13.904Z,8.41
2018-12-09T12:46:13.919Z,8.42
2018-12-09T12:47:13.946Z,8.42
2018-12-09T12:48:13.960Z,8.36
2018-12-09T12:49:13.971Z,8.38
2018-12-09T12:50:13.986Z,8.38
2018-12-09T12:51:13.997Z,8.42
2018-12-09T12:52:14.011Z,8.38
2018-12-09T12:53:14.037Z,8.42
2018-12-09T12:54:14.051Z,8.45
2018-12-09T12:55:14.068Z,8.38
2018-12-09T12:56:14.089Z,8.42
2018-12-09T12:57:14.095Z,8.44
2018-12-09T12:58:14.117Z,8.31
2018-12-09T12:59:14.132Z,8.39
2018-12-09T13:00:14.144Z,8.42
2018-12-09T13:01:14.158Z,8.35
2018-12-09T13:02:14.184Z,8.41
2018-12-09T13:03:14.196Z,8.36
2018-12-09T13:04:14.210Z,8.39
2018-12-09T13:05:14.224Z,8.45
2018-12-09T13:06:14.239Z,8.45
2018-12-09T13:07:14.251Z,8.36
2018-12-09T13:08:14.276Z,8.36
2018-12-09T13:09:14.291Z,8.32
2018-12-09T13:10:14.316Z,8.38
2018-12-09T13:11:14.320Z,8.38
2018-12-09T13:12:14.331Z,8.32
2018-12-09T13:13:14.357Z,8.32
2018-12-09T13:14:14.371Z,8.38
2018-12-09T13:15:14.384Z,8.27
2018-12-09T13:16:14.402Z,8.38
2018-12-09T13:17:14.415Z,8.27
2018-12-09T13:18:14.437Z,8.35